NOZ9KC EDDH-ENBR
Flight info
| Callsign | NOZ9KC |
|---|---|
| Flight time | 1h 16m |
| Altitude | 36000 |
| Route | ELSOB3G/33 ELSOB Y348 OMWEG DCT BADOS DCT ATTUS DCT BADAB |
| Aircraft | B738/M-SDE2E3FGHIRWXY/LB1 |
Departure
| Time | 2026-04-25 18:18 |
|---|---|
| Airport | Hamburg Helmut Schmidt Airport (EDDH) |
Arrival
| Time | 2026-04-25 19:34 |
|---|---|
| Airport | Bergen Airport, Flesland (ENBR) |
| Time | Latitude | Longitude | Altitude | Speed | Heading |
|---|---|---|---|---|---|
| 2026-04-25 17:47 | 53.63214 | 9.99970 | 44 ft | 0 kts | 321° |
| 2026-04-25 17:47 | 53.63212 | 9.99973 | 47 ft | 0 kts | 320° |
| 2026-04-25 18:07 | 53.63202 | 9.99987 | 47 ft | 2 kts | 321° |
| 2026-04-25 18:07 | 53.63187 | 10.00016 | 42 ft | 4 kts | 276° |
| 2026-04-25 18:07 | 53.63192 | 10.00057 | 44 ft | 4 kts | 235° |
| 2026-04-25 18:08 | 53.63195 | 10.00066 | 45 ft | 1 kts | 230° |
| 2026-04-25 18:12 | 53.63194 | 10.00064 | 47 ft | 1 kts | 230° |
| 2026-04-25 18:13 | 53.63172 | 10.00018 | 47 ft | 9 kts | 231° |
| 2026-04-25 18:13 | 53.63129 | 9.99933 | 47 ft | 8 kts | 227° |
| 2026-04-25 18:13 | 53.63077 | 9.99901 | 47 ft | 8 kts | 182° |
| 2026-04-25 18:14 | 53.62980 | 9.99973 | 47 ft | 7 kts | 153° |
| 2026-04-25 18:14 | 53.62932 | 9.99988 | 47 ft | 7 kts | 197° |
| 2026-04-25 18:14 | 53.62902 | 9.99930 | 47 ft | 5 kts | 239° |
| 2026-04-25 18:14 | 53.62899 | 9.99922 | 45 ft | 0 kts | 240° |
| 2026-04-25 18:15 | 53.62896 | 9.99913 | 46 ft | 2 kts | 241° |
| 2026-04-25 18:15 | 53.62884 | 9.99874 | 46 ft | 6 kts | 243° |
| 2026-04-25 18:16 | 53.62862 | 9.99795 | 41 ft | 7 kts | 253° |
| 2026-04-25 18:16 | 53.62878 | 9.99737 | 43 ft | 0 kts | 331° |
| 2026-04-25 18:17 | 53.62881 | 9.99734 | 43 ft | 3 kts | 331° |
| 2026-04-25 18:17 | 53.63067 | 9.99571 | 45 ft | 62 kts | 333° |
| 2026-04-25 18:17 | 53.63628 | 9.99083 | 47 ft | 117 kts | 333° |
| 2026-04-25 18:17 | 53.64476 | 9.98328 | 156 ft | 149 kts | 326° |
| 2026-04-25 18:18 | 53.65385 | 9.97503 | 724 ft | 151 kts | 328° |
| 2026-04-25 18:18 | 53.66319 | 9.96721 | 1396 ft | 154 kts | 329° |
| 2026-04-25 18:18 | 53.67360 | 9.95842 | 1774 ft | 175 kts | 330° |
| 2026-04-25 18:18 | 53.68466 | 9.94904 | 2320 ft | 179 kts | 329° |
| 2026-04-25 18:19 | 53.69585 | 9.93948 | 2972 ft | 181 kts | 330° |
| 2026-04-25 18:19 | 53.70649 | 9.92855 | 3643 ft | 184 kts | 313° |
| 2026-04-25 18:19 | 53.71508 | 9.91134 | 4023 ft | 203 kts | 318° |
| 2026-04-25 18:19 | 53.72678 | 9.89582 | 4347 ft | 221 kts | 321° |
| 2026-04-25 18:20 | 53.73886 | 9.87964 | 5130 ft | 220 kts | 321° |
| 2026-04-25 18:20 | 53.75089 | 9.86313 | 5768 ft | 226 kts | 320° |
| 2026-04-25 18:20 | 53.76315 | 9.84608 | 6479 ft | 228 kts | 320° |
| 2026-04-25 18:20 | 53.77524 | 9.82909 | 7228 ft | 229 kts | 319° |
| 2026-04-25 18:21 | 53.78743 | 9.81185 | 8041 ft | 228 kts | 319° |
| 2026-04-25 18:21 | 53.79966 | 9.79444 | 8813 ft | 230 kts | 318° |
| 2026-04-25 18:21 | 53.81190 | 9.77693 | 9583 ft | 232 kts | 318° |
| 2026-04-25 18:21 | 53.82427 | 9.75918 | 10011 ft | 233 kts | 318° |
| 2026-04-25 18:22 | 53.83677 | 9.74120 | 10337 ft | 247 kts | 318° |
| 2026-04-25 18:22 | 53.84568 | 9.72834 | 10466 ft | 260 kts | 318° |
| 2026-04-25 18:22 | 53.86512 | 9.70025 | 10706 ft | 288 kts | 318° |
| 2026-04-25 18:22 | 53.88086 | 9.67747 | 10850 ft | 307 kts | 318° |
| 2026-04-25 18:23 | 53.89758 | 9.65326 | 11007 ft | 324 kts | 318° |
| 2026-04-25 18:23 | 53.91497 | 9.62805 | 11396 ft | 332 kts | 318° |
| 2026-04-25 18:23 | 53.93259 | 9.60248 | 11985 ft | 334 kts | 318° |
| 2026-04-25 18:23 | 53.95033 | 9.57673 | 12624 ft | 335 kts | 319° |
| 2026-04-25 18:24 | 53.96813 | 9.55082 | 13256 ft | 338 kts | 319° |
| 2026-04-25 18:24 | 53.98582 | 9.52503 | 13857 ft | 341 kts | 319° |
| 2026-04-25 18:24 | 54.00411 | 9.49912 | 14371 ft | 344 kts | 322° |
| 2026-04-25 18:24 | 54.02458 | 9.47689 | 14843 ft | 351 kts | 328° |
| 2026-04-25 18:25 | 54.04590 | 9.45632 | 15463 ft | 352 kts | 328° |
| 2026-04-25 18:25 | 54.06722 | 9.43558 | 16081 ft | 353 kts | 328° |
| 2026-04-25 18:25 | 54.08836 | 9.41487 | 16633 ft | 356 kts | 328° |
| 2026-04-25 18:25 | 54.10993 | 9.39367 | 17176 ft | 359 kts | 328° |
| 2026-04-25 18:26 | 54.13159 | 9.37230 | 17723 ft | 362 kts | 328° |
| 2026-04-25 18:26 | 54.15332 | 9.35082 | 18484 ft | 359 kts | 328° |
| 2026-04-25 18:26 | 54.17495 | 9.32942 | 18977 ft | 361 kts | 328° |
| 2026-04-25 18:26 | 54.19683 | 9.30771 | 19350 ft | 366 kts | 328° |
| 2026-04-25 18:27 | 54.21893 | 9.28575 | 19785 ft | 369 kts | 328° |
| 2026-04-25 18:27 | 54.24120 | 9.26362 | 20247 ft | 371 kts | 328° |
| 2026-04-25 18:27 | 54.26365 | 9.24127 | 20677 ft | 373 kts | 328° |
| 2026-04-25 18:27 | 54.28619 | 9.21880 | 21084 ft | 376 kts | 328° |
| 2026-04-25 18:28 | 54.30863 | 9.19641 | 21483 ft | 378 kts | 328° |
| 2026-04-25 18:28 | 54.33144 | 9.17363 | 21886 ft | 381 kts | 328° |
| 2026-04-25 18:28 | 54.35444 | 9.15062 | 22271 ft | 383 kts | 328° |
| 2026-04-25 18:29 | 54.40335 | 9.11231 | 23000 ft | 391 kts | 336° |
| 2026-04-25 18:29 | 54.42901 | 9.09585 | 23305 ft | 394 kts | 336° |
| 2026-04-25 18:30 | 54.50645 | 9.04532 | 24292 ft | 399 kts | 336° |
| 2026-04-25 18:30 | 54.53241 | 9.02821 | 24588 ft | 401 kts | 336° |
| 2026-04-25 18:30 | 54.55849 | 9.01097 | 24869 ft | 402 kts | 336° |
| 2026-04-25 18:30 | 54.58436 | 8.99384 | 25143 ft | 404 kts | 336° |
| 2026-04-25 18:31 | 54.61074 | 8.97635 | 25405 ft | 406 kts | 336° |
| 2026-04-25 18:31 | 54.63715 | 8.95882 | 25668 ft | 408 kts | 336° |
| 2026-04-25 18:31 | 54.66367 | 8.94119 | 25940 ft | 409 kts | 336° |
| 2026-04-25 18:31 | 54.69026 | 8.92350 | 26329 ft | 407 kts | 336° |
| 2026-04-25 18:32 | 54.71645 | 8.90606 | 26872 ft | 401 kts | 336° |
| 2026-04-25 18:32 | 54.74259 | 8.88863 | 27239 ft | 401 kts | 336° |
| 2026-04-25 18:32 | 54.76866 | 8.87119 | 27525 ft | 401 kts | 336° |
| 2026-04-25 18:32 | 54.79442 | 8.85394 | 27793 ft | 402 kts | 336° |
| 2026-04-25 18:33 | 54.82044 | 8.83649 | 28105 ft | 401 kts | 336° |
| 2026-04-25 18:33 | 54.84641 | 8.81906 | 28444 ft | 400 kts | 336° |
| 2026-04-25 18:33 | 54.87235 | 8.80164 | 28788 ft | 399 kts | 336° |
| 2026-04-25 18:33 | 54.89822 | 8.78424 | 29116 ft | 398 kts | 336° |
| 2026-04-25 18:34 | 54.92419 | 8.76750 | 29436 ft | 398 kts | 338° |
| 2026-04-25 18:34 | 54.95040 | 8.75188 | 29790 ft | 398 kts | 338° |
| 2026-04-25 18:34 | 54.97664 | 8.73670 | 30088 ft | 398 kts | 339° |
| 2026-04-25 18:34 | 55.00299 | 8.72152 | 30291 ft | 399 kts | 339° |
| 2026-04-25 18:35 | 55.02939 | 8.70624 | 30548 ft | 398 kts | 339° |
| 2026-04-25 18:35 | 55.05561 | 8.69095 | 30846 ft | 397 kts | 339° |
| 2026-04-25 18:35 | 55.08177 | 8.67559 | 31138 ft | 396 kts | 339° |
| 2026-04-25 18:35 | 55.10783 | 8.66020 | 31410 ft | 395 kts | 339° |
| 2026-04-25 18:36 | 55.13389 | 8.64475 | 31670 ft | 394 kts | 339° |
| 2026-04-25 18:36 | 55.15952 | 8.62951 | 31940 ft | 393 kts | 339° |
| 2026-04-25 18:36 | 55.18573 | 8.61389 | 32219 ft | 392 kts | 339° |
| 2026-04-25 18:36 | 55.21126 | 8.59864 | 32492 ft | 392 kts | 339° |
| 2026-04-25 18:37 | 55.23700 | 8.58325 | 32847 ft | 389 kts | 339° |
| 2026-04-25 18:37 | 55.26255 | 8.56796 | 33215 ft | 386 kts | 339° |
| 2026-04-25 18:37 | 55.28792 | 8.55275 | 33488 ft | 385 kts | 339° |
| 2026-04-25 18:37 | 55.31331 | 8.53751 | 33720 ft | 385 kts | 339° |
| 2026-04-25 18:38 | 55.33640 | 8.52362 | 33920 ft | 385 kts | 340° |
| 2026-04-25 18:38 | 55.36169 | 8.50840 | 34164 ft | 384 kts | 340° |
| 2026-04-25 18:38 | 55.38702 | 8.49313 | 34363 ft | 384 kts | 340° |
| 2026-04-25 18:38 | 55.41198 | 8.47806 | 34527 ft | 384 kts | 340° |
| 2026-04-25 18:39 | 55.43731 | 8.46276 | 34692 ft | 384 kts | 340° |
| 2026-04-25 18:39 | 55.46258 | 8.44747 | 34874 ft | 384 kts | 340° |
| 2026-04-25 18:39 | 55.48789 | 8.43213 | 35065 ft | 384 kts | 340° |
| 2026-04-25 18:39 | 55.51321 | 8.41677 | 35348 ft | 382 kts | 340° |
| 2026-04-25 18:40 | 55.53831 | 8.40153 | 35583 ft | 381 kts | 340° |
| 2026-04-25 18:40 | 55.56342 | 8.38625 | 35674 ft | 382 kts | 340° |
| 2026-04-25 18:40 | 55.61409 | 8.35535 | 35821 ft | 386 kts | 340° |
| 2026-04-25 18:41 | 55.63914 | 8.34005 | 36021 ft | 385 kts | 340° |
| 2026-04-25 18:41 | 55.66453 | 8.32452 | 36056 ft | 387 kts | 340° |
| 2026-04-25 18:41 | 55.71551 | 8.29327 | 36075 ft | 386 kts | 340° |
| 2026-04-25 18:42 | 55.74941 | 8.27245 | 36077 ft | 384 kts | 340° |
| 2026-04-25 18:42 | 55.81656 | 8.23108 | 36084 ft | 383 kts | 340° |
| 2026-04-25 18:43 | 55.86692 | 8.19995 | 36092 ft | 382 kts | 340° |
| 2026-04-25 18:43 | 55.91682 | 8.16903 | 36083 ft | 382 kts | 340° |
| 2026-04-25 18:44 | 55.96710 | 8.13778 | 36094 ft | 383 kts | 340° |
| 2026-04-25 18:44 | 56.01751 | 8.10637 | 36104 ft | 383 kts | 340° |
| 2026-04-25 18:45 | 56.06795 | 8.07485 | 36090 ft | 384 kts | 340° |
| 2026-04-25 18:45 | 56.11835 | 8.04326 | 36087 ft | 383 kts | 340° |
| 2026-04-25 18:46 | 56.16835 | 8.01185 | 36090 ft | 382 kts | 340° |
| 2026-04-25 18:46 | 56.21859 | 7.98019 | 36087 ft | 383 kts | 340° |
| 2026-04-25 18:47 | 56.26906 | 7.94830 | 36095 ft | 384 kts | 340° |
| 2026-04-25 18:47 | 56.31973 | 7.91619 | 36100 ft | 386 kts | 340° |
| 2026-04-25 18:48 | 56.37014 | 7.88416 | 36109 ft | 387 kts | 340° |
| 2026-04-25 18:48 | 56.42101 | 7.85174 | 36089 ft | 387 kts | 340° |
| 2026-04-25 18:49 | 56.47174 | 7.81933 | 36099 ft | 386 kts | 340° |
| 2026-04-25 18:49 | 56.52241 | 7.78686 | 36096 ft | 386 kts | 340° |
| 2026-04-25 18:50 | 56.57089 | 7.75569 | 36097 ft | 386 kts | 340° |
| 2026-04-25 18:50 | 56.62152 | 7.72307 | 36126 ft | 385 kts | 340° |
| 2026-04-25 18:51 | 56.65526 | 7.70128 | 36101 ft | 384 kts | 340° |
| 2026-04-25 18:51 | 56.71367 | 7.66345 | 36103 ft | 382 kts | 340° |
| 2026-04-25 18:52 | 56.76381 | 7.63088 | 36097 ft | 381 kts | 340° |
| 2026-04-25 18:52 | 56.81379 | 7.59830 | 36061 ft | 382 kts | 340° |
| 2026-04-25 18:53 | 56.86415 | 7.56540 | 36099 ft | 387 kts | 340° |
| 2026-04-25 18:53 | 56.91465 | 7.53232 | 36096 ft | 388 kts | 340° |
| 2026-04-25 18:54 | 56.99098 | 7.48213 | 36097 ft | 387 kts | 340° |
| 2026-04-25 18:55 | 57.04142 | 7.44884 | 36102 ft | 386 kts | 340° |
| 2026-04-25 18:55 | 57.09189 | 7.41544 | 36097 ft | 385 kts | 340° |
| 2026-04-25 18:56 | 57.14229 | 7.38198 | 36097 ft | 384 kts | 340° |
| 2026-04-25 18:56 | 57.19251 | 7.34855 | 36112 ft | 383 kts | 340° |
| 2026-04-25 18:57 | 57.24256 | 7.31513 | 36110 ft | 382 kts | 340° |
| 2026-04-25 18:57 | 57.29214 | 7.28193 | 36107 ft | 380 kts | 340° |
| 2026-04-25 18:58 | 57.34190 | 7.24852 | 36101 ft | 380 kts | 339° |
| 2026-04-25 18:58 | 57.41641 | 7.19830 | 36101 ft | 379 kts | 339° |
| 2026-04-25 18:59 | 57.51446 | 7.13188 | 36114 ft | 385 kts | 339° |
| 2026-04-25 19:00 | 57.58977 | 7.08059 | 36109 ft | 386 kts | 339° |
| 2026-04-25 19:01 | 57.66537 | 7.02869 | 36105 ft | 385 kts | 339° |
| 2026-04-25 19:01 | 57.71541 | 6.99443 | 36120 ft | 385 kts | 339° |
| 2026-04-25 19:02 | 57.79086 | 6.94258 | 36128 ft | 383 kts | 339° |
| 2026-04-25 19:03 | 57.85739 | 6.89658 | 36116 ft | 382 kts | 339° |
| 2026-04-25 19:03 | 57.91525 | 6.85641 | 36117 ft | 381 kts | 339° |
| 2026-04-25 19:04 | 57.98981 | 6.80443 | 36127 ft | 380 kts | 339° |
| 2026-04-25 19:05 | 58.08905 | 6.73489 | 36104 ft | 381 kts | 339° |
| 2026-04-25 19:06 | 58.13915 | 6.69963 | 36111 ft | 386 kts | 339° |
| 2026-04-25 19:06 | 58.21475 | 6.64622 | 36119 ft | 389 kts | 339° |
| 2026-04-25 19:07 | 58.29081 | 6.59224 | 36127 ft | 389 kts | 339° |
| 2026-04-25 19:08 | 58.36684 | 6.53803 | 36125 ft | 387 kts | 339° |
| 2026-04-25 19:09 | 58.45887 | 6.47207 | 36130 ft | 384 kts | 339° |
| 2026-04-25 19:10 | 58.54203 | 6.41216 | 36118 ft | 384 kts | 339° |
| 2026-04-25 19:10 | 58.59219 | 6.37587 | 35816 ft | 385 kts | 339° |
| 2026-04-25 19:10 | 58.61724 | 6.35770 | 35639 ft | 384 kts | 339° |
| 2026-04-25 19:11 | 58.64195 | 6.33976 | 35471 ft | 384 kts | 339° |
| 2026-04-25 19:11 | 58.66697 | 6.32157 | 35296 ft | 385 kts | 339° |
| 2026-04-25 19:11 | 58.69202 | 6.30331 | 35130 ft | 385 kts | 339° |
| 2026-04-25 19:11 | 58.71707 | 6.28503 | 34917 ft | 386 kts | 339° |
| 2026-04-25 19:12 | 58.74235 | 6.26656 | 34739 ft | 390 kts | 339° |
| 2026-04-25 19:12 | 58.76799 | 6.24779 | 34554 ft | 395 kts | 339° |
| 2026-04-25 19:12 | 58.79387 | 6.22884 | 34398 ft | 399 kts | 339° |
| 2026-04-25 19:12 | 58.81978 | 6.20982 | 34137 ft | 395 kts | 339° |
| 2026-04-25 19:13 | 58.84517 | 6.19113 | 33403 ft | 394 kts | 339° |
| 2026-04-25 19:13 | 58.87085 | 6.17222 | 32665 ft | 394 kts | 339° |
| 2026-04-25 19:13 | 58.89641 | 6.15345 | 31941 ft | 393 kts | 339° |
| 2026-04-25 19:13 | 58.92201 | 6.13455 | 31171 ft | 393 kts | 339° |
| 2026-04-25 19:14 | 58.94745 | 6.11567 | 30447 ft | 394 kts | 339° |
| 2026-04-25 19:14 | 58.95589 | 6.10940 | 30172 ft | 394 kts | 339° |
| 2026-04-25 19:14 | 58.99858 | 6.07765 | 28739 ft | 393 kts | 339° |
| 2026-04-25 19:14 | 59.02407 | 6.05874 | 28156 ft | 387 kts | 339° |
| 2026-04-25 19:15 | 59.04904 | 6.04016 | 27540 ft | 381 kts | 339° |
| 2026-04-25 19:15 | 59.07372 | 6.02219 | 26964 ft | 376 kts | 341° |
| 2026-04-25 19:15 | 59.09895 | 6.01037 | 26551 ft | 369 kts | 347° |
| 2026-04-25 19:15 | 59.12409 | 6.00122 | 26014 ft | 364 kts | 347° |
| 2026-04-25 19:16 | 59.14867 | 5.99261 | 25463 ft | 361 kts | 347° |
| 2026-04-25 19:16 | 59.17323 | 5.98386 | 24927 ft | 356 kts | 347° |
| 2026-04-25 19:16 | 59.19750 | 5.97498 | 24437 ft | 353 kts | 347° |
| 2026-04-25 19:16 | 59.22149 | 5.96602 | 23907 ft | 349 kts | 347° |
| 2026-04-25 19:17 | 59.24523 | 5.95703 | 23321 ft | 346 kts | 347° |
| 2026-04-25 19:17 | 59.26870 | 5.94807 | 22784 ft | 342 kts | 346° |
| 2026-04-25 19:17 | 59.29214 | 5.93908 | 22271 ft | 343 kts | 346° |
| 2026-04-25 19:17 | 59.31543 | 5.93011 | 21762 ft | 347 kts | 346° |
| 2026-04-25 19:18 | 59.33931 | 5.92091 | 21241 ft | 349 kts | 346° |
| 2026-04-25 19:18 | 59.36315 | 5.91173 | 20710 ft | 346 kts | 346° |
| 2026-04-25 19:18 | 59.38665 | 5.90268 | 20198 ft | 342 kts | 346° |
| 2026-04-25 19:18 | 59.40943 | 5.89390 | 19908 ft | 333 kts | 346° |
| 2026-04-25 19:19 | 59.43191 | 5.88529 | 19539 ft | 325 kts | 347° |
| 2026-04-25 19:19 | 59.45439 | 5.87967 | 19020 ft | 324 kts | 351° |
| 2026-04-25 19:19 | 59.47679 | 5.87616 | 18507 ft | 323 kts | 352° |
| 2026-04-25 19:19 | 59.49164 | 5.87411 | 18340 ft | 316 kts | 352° |
| 2026-04-25 19:20 | 59.51959 | 5.87025 | 18179 ft | 287 kts | 352° |
| 2026-04-25 19:20 | 59.53887 | 5.86739 | 18037 ft | 269 kts | 351° |
| 2026-04-25 19:20 | 59.55697 | 5.86459 | 17784 ft | 255 kts | 351° |
| 2026-04-25 19:20 | 59.57435 | 5.86179 | 17192 ft | 253 kts | 351° |
| 2026-04-25 19:21 | 59.59193 | 5.85888 | 16551 ft | 254 kts | 352° |
| 2026-04-25 19:21 | 59.62709 | 5.85308 | 15373 ft | 253 kts | 352° |
| 2026-04-25 19:21 | 59.64456 | 5.85021 | 14891 ft | 251 kts | 352° |
| 2026-04-25 19:22 | 59.66186 | 5.84737 | 14396 ft | 248 kts | 353° |
| 2026-04-25 19:22 | 59.67911 | 5.84454 | 13824 ft | 249 kts | 352° |
| 2026-04-25 19:22 | 59.71324 | 5.83890 | 12760 ft | 246 kts | 353° |
| 2026-04-25 19:23 | 59.73034 | 5.83608 | 12198 ft | 245 kts | 353° |
| 2026-04-25 19:23 | 59.76412 | 5.82905 | 11151 ft | 242 kts | 342° |
| 2026-04-25 19:23 | 59.77905 | 5.81335 | 10660 ft | 243 kts | 330° |
| 2026-04-25 19:24 | 59.79340 | 5.79552 | 10153 ft | 243 kts | 330° |
| 2026-04-25 19:24 | 59.80747 | 5.77802 | 9746 ft | 240 kts | 330° |
| 2026-04-25 19:24 | 59.83593 | 5.74263 | 9106 ft | 245 kts | 330° |
| 2026-04-25 19:25 | 59.86495 | 5.70654 | 8503 ft | 246 kts | 330° |
| 2026-04-25 19:25 | 59.87947 | 5.68845 | 8208 ft | 246 kts | 330° |
| 2026-04-25 19:25 | 59.89397 | 5.67034 | 7905 ft | 246 kts | 329° |
| 2026-04-25 19:26 | 59.90771 | 5.64877 | 7397 ft | 255 kts | 321° |
| 2026-04-25 19:26 | 59.92059 | 5.62505 | 7028 ft | 255 kts | 320° |
| 2026-04-25 19:26 | 59.93355 | 5.60078 | 6700 ft | 255 kts | 320° |
| 2026-04-25 19:26 | 59.94654 | 5.57659 | 6166 ft | 260 kts | 320° |
| 2026-04-25 19:27 | 59.95975 | 5.55217 | 5844 ft | 257 kts | 320° |
| 2026-04-25 19:27 | 59.96419 | 5.54399 | 5713 ft | 257 kts | 320° |
| 2026-04-25 19:27 | 59.98579 | 5.50436 | 5270 ft | 249 kts | 320° |
| 2026-04-25 19:27 | 59.99846 | 5.48119 | 5024 ft | 245 kts | 321° |
| 2026-04-25 19:28 | 60.01099 | 5.45832 | 4814 ft | 241 kts | 320° |
| 2026-04-25 19:28 | 60.02331 | 5.43583 | 4714 ft | 241 kts | 320° |
| 2026-04-25 19:28 | 60.03570 | 5.41322 | 4589 ft | 240 kts | 321° |
| 2026-04-25 19:28 | 60.04788 | 5.39096 | 4502 ft | 234 kts | 321° |
| 2026-04-25 19:29 | 60.05959 | 5.36957 | 4419 ft | 227 kts | 320° |
| 2026-04-25 19:29 | 60.07122 | 5.34832 | 4199 ft | 227 kts | 321° |
| 2026-04-25 19:29 | 60.08280 | 5.32713 | 4030 ft | 223 kts | 321° |
| 2026-04-25 19:29 | 60.09430 | 5.30610 | 3824 ft | 225 kts | 321° |
| 2026-04-25 19:30 | 60.10607 | 5.28588 | 3584 ft | 220 kts | 331° |
| 2026-04-25 19:30 | 60.12028 | 5.27638 | 3344 ft | 214 kts | 352° |
| 2026-04-25 19:30 | 60.13493 | 5.27154 | 3042 ft | 210 kts | 351° |
| 2026-04-25 19:30 | 60.14914 | 5.26659 | 2766 ft | 204 kts | 351° |
| 2026-04-25 19:31 | 60.16288 | 5.26197 | 2502 ft | 197 kts | 351° |
| 2026-04-25 19:31 | 60.17620 | 5.25752 | 2251 ft | 189 kts | 351° |
| 2026-04-25 19:31 | 60.18858 | 5.25337 | 2032 ft | 171 kts | 351° |
| 2026-04-25 19:31 | 60.19962 | 5.24968 | 1815 ft | 154 kts | 350° |
| 2026-04-25 19:32 | 60.20969 | 5.24631 | 1633 ft | 143 kts | 349° |
| 2026-04-25 19:32 | 60.21938 | 5.24305 | 1486 ft | 135 kts | 350° |
| 2026-04-25 19:32 | 60.22849 | 5.24001 | 1271 ft | 130 kts | 350° |
| 2026-04-25 19:32 | 60.23147 | 5.23901 | 1213 ft | 129 kts | 350° |
| 2026-04-25 19:33 | 60.24611 | 5.23400 | 936 ft | 130 kts | 347° |
| 2026-04-25 19:33 | 60.25525 | 5.23084 | 785 ft | 133 kts | 349° |
| 2026-04-25 19:33 | 60.26435 | 5.22791 | 596 ft | 135 kts | 348° |
| 2026-04-25 19:33 | 60.27372 | 5.22469 | 397 ft | 137 kts | 351° |
| 2026-04-25 19:34 | 60.28305 | 5.22165 | 205 ft | 133 kts | 348° |
| 2026-04-25 19:34 | 60.29142 | 5.21881 | 159 ft | 89 kts | 350° |
| 2026-04-25 19:34 | 60.29576 | 5.21735 | 147 ft | 42 kts | 351° |
| 2026-04-25 19:34 | 60.29712 | 5.21803 | 145 ft | 19 kts | 67° |
| 2026-04-25 19:35 | 60.29721 | 5.21906 | 148 ft | 0 kts | 82° |
| 2026-04-25 19:36 | 60.29721 | 5.21954 | 147 ft | 7 kts | 101° |
| 2026-04-25 19:36 | 60.29687 | 5.22016 | 149 ft | 7 kts | 158° |
| 2026-04-25 19:36 | 60.29641 | 5.22037 | 151 ft | 7 kts | 169° |
| 2026-04-25 19:37 | 60.29594 | 5.22054 | 152 ft | 7 kts | 172° |
| 2026-04-25 19:37 | 60.29524 | 5.22073 | 155 ft | 14 kts | 171° |
| 2026-04-25 19:37 | 60.29415 | 5.22112 | 158 ft | 16 kts | 169° |
| 2026-04-25 19:37 | 60.29342 | 5.22137 | 162 ft | 16 kts | 171° |
| 2026-04-25 19:38 | 60.29162 | 5.22200 | 170 ft | 23 kts | 169° |
| 2026-04-25 19:38 | 60.29015 | 5.22250 | 173 ft | 15 kts | 171° |
| 2026-04-25 19:38 | 60.28954 | 5.22286 | 172 ft | 8 kts | 137° |
| 2026-04-25 19:38 | 60.28950 | 5.22392 | 174 ft | 8 kts | 82° |
| 2026-04-25 19:39 | 60.28942 | 5.22490 | 174 ft | 6 kts | 109° |
| 2026-04-25 19:39 | 60.28935 | 5.22528 | 174 ft | 0 kts | 109° |
| 2026-04-25 19:39 | 60.28933 | 5.22541 | 174 ft | 0 kts | 109° |